createdAt,value
2022-12-19T00:01:37.127Z,77.66
2022-12-19T00:04:09.492Z,77.73
2022-12-19T00:06:43.646Z,77.21
2022-12-19T00:09:14.104Z,77.56
2022-12-19T00:11:43.083Z,77.42
2022-12-19T00:14:12.894Z,77.63
2022-12-19T00:16:41.636Z,77.31
2022-12-19T00:19:12.516Z,77.27
2022-12-19T00:21:41.339Z,77.52
2022-12-19T00:24:21.462Z,77.33
2022-12-19T00:26:51.085Z,77.34
2022-12-19T00:29:21.462Z,77.72
2022-12-19T00:31:50.808Z,77.35
2022-12-19T00:34:19.714Z,77.58
2022-12-19T00:36:48.529Z,77.51
2022-12-19T00:39:19.367Z,77.08
2022-12-19T00:41:48.245Z,77.33
2022-12-19T00:44:17.303Z,77.12
2022-12-19T00:46:51.846Z,77.42
2022-12-19T00:49:22.241Z,77.33
2022-12-19T00:51:51.120Z,77.19
2022-12-19T00:54:20.148Z,77.59
2022-12-19T00:56:49.081Z,76.96
2022-12-19T00:59:20.073Z,77.30
2022-12-19T01:01:59.278Z,77.04
2022-12-19T01:04:29.511Z,76.85
2022-12-19T01:07:02.783Z,77.08
2022-12-19T01:09:36.544Z,77.29
2022-12-19T01:12:25.074Z,77.08
2022-12-19T01:15:03.733Z,77.12
2022-12-19T01:17:36.514Z,77.60
2022-12-19T01:20:17.559Z,77.39
2022-12-19T01:22:48.737Z,77.58
2022-12-19T01:25:17.715Z,77.31
2022-12-19T01:27:46.525Z,77.25
2022-12-19T01:30:15.503Z,77.39
2022-12-19T01:32:45.662Z,77.22
2022-12-19T01:35:21.178Z,77.25
2022-12-19T01:37:51.626Z,77.40
2022-12-19T01:40:21.982Z,76.89
2022-12-19T01:42:51.072Z,77.17
2022-12-19T01:45:34.091Z,77.34
2022-12-19T01:48:31.642Z,77.25
2022-12-19T01:51:04.857Z,77.22
2022-12-19T01:53:48.700Z,77.27
2022-12-19T01:56:23.579Z,77.39
2022-12-19T01:59:05.662Z,77.24
2022-12-19T02:01:51.669Z,77.38
2022-12-19T02:04:27.799Z,77.22
2022-12-19T02:07:04.317Z,77.26
2022-12-19T02:09:56.554Z,77.16
2022-12-19T02:12:34.433Z,77.13
2022-12-19T02:15:05.109Z,77.35
2022-12-19T02:17:56.719Z,77.51
2022-12-19T02:21:05.820Z,77.32
2022-12-19T02:23:49.750Z,77.28
2022-12-19T02:26:37.948Z,77.24
2022-12-19T02:29:10.240Z,77.46
2022-12-19T02:32:22.135Z,77.50
2022-12-19T02:35:02.063Z,77.28
2022-12-19T02:37:35.528Z,77.58
2022-12-19T02:40:20.422Z,77.30
2022-12-19T02:43:04.574Z,77.68
2022-12-19T02:45:37.795Z,77.18
2022-12-19T02:48:09.136Z,77.31
2022-12-19T02:50:47.890Z,77.62
2022-12-19T02:53:24.118Z,77.80
2022-12-19T02:56:23.950Z,77.40
2022-12-19T02:59:19.468Z,77.77
2022-12-19T03:01:58.323Z,77.80
2022-12-19T03:04:57.150Z,77.65
2022-12-19T03:07:44.850Z,77.44
2022-12-19T03:10:36.833Z,77.68
2022-12-19T03:13:32.019Z,77.41
2022-12-19T03:16:04.079Z,77.46
2022-12-19T03:18:34.548Z,77.60
2022-12-19T03:21:16.308Z,77.55
2022-12-19T03:23:46.576Z,78.00
2022-12-19T03:26:24.885Z,77.89
2022-12-19T03:29:43.155Z,77.55
2022-12-19T03:32:14.789Z,78.13
2022-12-19T03:34:56.468Z,77.78
2022-12-19T03:37:29.283Z,78.20
2022-12-19T03:40:05.040Z,78.39
2022-12-19T03:42:53.519Z,77.90
2022-12-19T03:45:30.152Z,78.29
2022-12-19T03:48:04.882Z,78.35
2022-12-19T03:50:46.546Z,78.33
2022-12-19T03:53:44.242Z,78.38
2022-12-19T03:56:31.709Z,78.51
2022-12-19T03:59:10.501Z,78.43
2022-12-19T04:01:41.329Z,78.45
2022-12-19T04:04:14.439Z,78.09
2022-12-19T04:06:44.831Z,77.77
2022-12-19T04:09:19.187Z,78.56
2022-12-19T04:11:59.732Z,78.36
2022-12-19T04:14:36.915Z,77.96
2022-12-19T04:17:15.456Z,78.39
2022-12-19T04:19:58.152Z,78.29
2022-12-19T04:22:36.783Z,78.41
2022-12-19T04:25:12.019Z,78.29
2022-12-19T04:27:45.626Z,78.77
2022-12-19T04:30:17.325Z,78.59
2022-12-19T04:32:47.416Z,78.72
2022-12-19T04:35:16.409Z,78.65
2022-12-19T04:37:45.362Z,78.75
2022-12-19T04:40:14.683Z,78.59
2022-12-19T04:42:43.498Z,78.52
2022-12-19T04:45:12.447Z,78.31
2022-12-19T04:47:41.677Z,78.27
2022-12-19T04:50:10.898Z,78.82
2022-12-19T04:52:39.836Z,78.80
2022-12-19T04:55:09.240Z,79.24
2022-12-19T04:57:38.339Z,78.89
2022-12-19T05:00:09.365Z,78.90
2022-12-19T05:02:39.496Z,78.81
2022-12-19T05:05:08.958Z,78.91
2022-12-19T05:07:37.930Z,79.18
2022-12-19T05:10:07.572Z,78.77
2022-12-19T05:12:36.454Z,79.07
2022-12-19T05:15:06.440Z,79.33
2022-12-19T05:17:35.542Z,79.22
2022-12-19T05:20:05.442Z,78.69
2022-12-19T05:22:34.228Z,79.21
2022-12-19T05:25:03.058Z,79.31
2022-12-19T05:27:31.974Z,79.29
2022-12-19T05:30:01.887Z,78.92
2022-12-19T05:32:32.763Z,79.40
2022-12-19T05:35:01.597Z,79.31
2022-12-19T05:37:31.287Z,79.29
2022-12-19T05:40:00.160Z,78.99
2022-12-19T05:42:28.961Z,78.77
2022-12-19T05:44:58.559Z,79.30
2022-12-19T05:47:27.371Z,78.81
2022-12-19T05:49:56.199Z,79.11
2022-12-19T05:52:25.350Z,78.93
2022-12-19T05:54:54.493Z,79.13
2022-12-19T05:57:23.595Z,79.03
2022-12-19T05:59:52.605Z,79.14
2022-12-19T06:02:22.179Z,79.37
2022-12-19T06:04:51.347Z,79.74
2022-12-19T06:07:21.362Z,79.32
2022-12-19T06:09:50.261Z,78.78
2022-12-19T06:12:19.070Z,79.56
2022-12-19T06:14:47.854Z,79.47
2022-12-19T06:17:16.697Z,79.45
2022-12-19T06:19:45.896Z,79.33
2022-12-19T06:22:14.981Z,79.12
2022-12-19T06:24:43.840Z,79.24
2022-12-19T06:27:12.658Z,79.38
2022-12-19T06:29:41.517Z,79.32
2022-12-19T06:32:10.408Z,79.19
2022-12-19T06:35:03.094Z,79.22
2022-12-19T06:37:28.522Z,79.44
2022-12-19T06:39:57.435Z,79.36
2022-12-19T06:42:26.389Z,79.17
2022-12-19T06:44:56.951Z,79.02
2022-12-19T06:47:26.299Z,79.43
2022-12-19T06:49:55.140Z,79.23
2022-12-19T06:52:24.072Z,79.04
2022-12-19T06:54:52.920Z,79.32
2022-12-19T06:57:21.797Z,79.17
2022-12-19T06:59:50.790Z,79.38
2022-12-19T07:02:29.663Z,79.08
2022-12-19T07:05:07.839Z,79.51
2022-12-19T07:07:36.834Z,79.60
2022-12-19T07:10:06.803Z,79.51
2022-12-19T07:12:37.585Z,79.29
2022-12-19T07:15:07.082Z,79.38
2022-12-19T07:17:36.002Z,79.56
2022-12-19T07:20:06.021Z,79.66
2022-12-19T07:22:37.015Z,79.45
2022-12-19T07:25:07.010Z,79.37
2022-12-19T07:27:36.676Z,79.48
2022-12-19T07:30:07.261Z,79.37
2022-12-19T07:32:37.453Z,79.80
2022-12-19T07:35:07.881Z,79.53
2022-12-19T07:37:36.685Z,79.40
2022-12-19T07:40:05.962Z,79.22
2022-12-19T07:42:34.873Z,79.46
2022-12-19T07:45:03.770Z,79.29
2022-12-19T07:47:34.338Z,79.22
2022-12-19T07:50:05.708Z,79.15
2022-12-19T07:52:40.274Z,79.14
2022-12-19T07:55:10.275Z,79.17
2022-12-19T07:57:39.209Z,79.45
2022-12-19T08:00:09.606Z,78.93
2022-12-19T08:02:42.385Z,79.10
2022-12-19T08:05:12.202Z,79.09
2022-12-19T08:07:41.453Z,79.08
2022-12-19T08:10:13.007Z,79.00
2022-12-19T08:12:42.618Z,79.23
2022-12-19T08:15:11.804Z,79.37
2022-12-19T08:17:41.262Z,79.13
2022-12-19T08:20:14.459Z,78.80
2022-12-19T08:22:43.316Z,78.78
2022-12-19T08:25:13.077Z,78.79
2022-12-19T08:27:43.679Z,79.26
2022-12-19T08:30:15.812Z,78.96
2022-12-19T08:32:45.862Z,79.16
2022-12-19T08:35:15.093Z,78.89
2022-12-19T08:37:43.912Z,78.86
2022-12-19T08:40:13.169Z,78.64
2022-12-19T08:42:42.405Z,78.82
2022-12-19T08:45:11.513Z,78.69
2022-12-19T08:47:40.336Z,78.47
2022-12-19T08:50:09.526Z,78.84
2022-12-19T08:52:38.306Z,78.80
2022-12-19T08:55:07.463Z,78.61
2022-12-19T08:57:36.729Z,78.69
2022-12-19T09:00:09.200Z,78.87
2022-12-19T09:02:38.886Z,79.03
2022-12-19T09:06:01.342Z,78.94
2022-12-19T09:07:57.109Z,78.55
2022-12-19T09:10:25.978Z,78.41
2022-12-19T09:12:57.828Z,78.58
2022-12-19T09:15:27.479Z,78.50
2022-12-19T09:17:56.988Z,78.45
2022-12-19T09:20:26.204Z,78.63
2022-12-19T09:22:55.688Z,78.86
2022-12-19T09:25:24.642Z,78.67
2022-12-19T09:28:26.433Z,78.57
2022-12-19T09:30:42.905Z,78.53
2022-12-19T09:33:13.236Z,78.97
2022-12-19T09:35:54.454Z,78.27
2022-12-19T09:38:26.806Z,78.77
2022-12-19T09:40:55.663Z,78.60
2022-12-19T09:43:42.088Z,78.57
2022-12-19T09:46:20.655Z,78.55
2022-12-19T09:48:55.394Z,78.18
2022-12-19T09:51:39.384Z,78.47
2022-12-19T09:54:16.331Z,78.04
2022-12-19T09:56:46.918Z,78.50
2022-12-19T09:59:28.277Z,78.39
2022-12-19T10:02:21.551Z,78.36
2022-12-19T10:05:10.408Z,78.39
2022-12-19T10:08:05.398Z,78.67
2022-12-19T10:12:43.487Z,78.72
2022-12-19T10:14:04.259Z,78.49
2022-12-19T10:17:23.765Z,78.36
2022-12-19T10:20:16.529Z,78.63
2022-12-19T10:22:55.568Z,78.51
2022-12-19T10:25:37.087Z,78.23
2022-12-19T10:28:38.207Z,78.85
2022-12-19T10:31:22.928Z,78.14
2022-12-19T10:34:03.553Z,78.25
2022-12-19T10:37:12.803Z,78.46
2022-12-19T10:39:44.398Z,78.11
2022-12-19T10:42:47.303Z,78.06
2022-12-19T10:45:22.034Z,78.33
2022-12-19T10:47:57.198Z,78.08
2022-12-19T10:50:30.433Z,78.14
2022-12-19T10:53:05.218Z,77.93
2022-12-19T10:55:35.201Z,78.57
2022-12-19T10:58:12.750Z,77.92
2022-12-19T11:00:57.158Z,78.35
2022-12-19T11:03:26.546Z,78.16
2022-12-19T11:05:58.668Z,78.12
2022-12-19T11:08:31.398Z,78.31
2022-12-19T11:12:54.756Z,78.44
2022-12-19T11:17:55.025Z,78.12
2022-12-19T11:21:36.554Z,78.16
2022-12-19T11:29:16.170Z,78.05
2022-12-19T11:30:06.370Z,78.60
2022-12-19T11:30:36.555Z,78.24
2022-12-19T11:30:46.428Z,78.12
2022-12-19T11:34:17.095Z,77.95
2022-12-19T11:36:59.519Z,77.94
2022-12-19T11:39:37.427Z,78.24
2022-12-19T11:42:13.257Z,78.26
2022-12-19T11:44:56.457Z,78.11
2022-12-19T11:47:52.404Z,78.10
2022-12-19T11:50:31.511Z,77.88
2022-12-19T11:53:18.868Z,78.04
2022-12-19T11:55:52.184Z,77.98
2022-12-19T11:58:23.494Z,77.95
2022-12-19T12:01:21.333Z,77.80
2022-12-19T12:04:12.026Z,78.18
2022-12-19T12:06:52.644Z,77.99
2022-12-19T12:15:37.938Z,78.03
2022-12-19T12:19:05.188Z,78.38
2022-12-19T12:28:29.672Z,78.01
2022-12-19T12:31:01.217Z,77.79
2022-12-19T12:31:41.203Z,77.91
2022-12-19T12:31:52.227Z,78.00
2022-12-19T12:31:56.044Z,77.96
2022-12-19T12:35:57.122Z,78.05
2022-12-19T12:38:16.675Z,78.20
2022-12-19T12:40:58.363Z,77.86
2022-12-19T12:43:42.453Z,78.27
2022-12-19T12:46:18.039Z,78.02
2022-12-19T12:48:47.143Z,78.40
2022-12-19T12:51:16.808Z,77.94
2022-12-19T12:53:49.113Z,78.37
2022-12-19T12:56:19.854Z,78.28
2022-12-19T12:58:51.535Z,77.78
2022-12-19T13:01:30.804Z,78.02
2022-12-19T13:04:14.044Z,78.13
2022-12-19T13:06:53.205Z,78.18
2022-12-19T13:09:26.108Z,77.86
2022-12-19T13:12:19.660Z,77.84
2022-12-19T13:14:51.243Z,77.74
2022-12-19T13:17:45.572Z,77.56
2022-12-19T13:20:35.437Z,77.84
2022-12-19T13:23:21.388Z,77.64
2022-12-19T13:25:55.167Z,77.66
2022-12-19T13:28:27.937Z,77.77
2022-12-19T13:31:13.499Z,77.76
2022-12-19T13:33:55.753Z,77.60
2022-12-19T13:39:50.575Z,78.03
2022-12-19T13:40:12.299Z,77.64
2022-12-19T13:43:34.363Z,77.81
2022-12-19T13:46:06.358Z,77.82
2022-12-19T13:48:43.097Z,77.81
2022-12-19T13:51:14.173Z,77.79
2022-12-19T13:53:44.510Z,77.57
2022-12-19T13:56:16.537Z,77.73
2022-12-19T13:58:58.975Z,77.87
2022-12-19T14:01:30.101Z,77.81
2022-12-19T14:04:07.734Z,77.92
2022-12-19T14:06:47.893Z,77.52
2022-12-19T14:11:33.775Z,77.68
2022-12-19T14:13:53.161Z,77.52
2022-12-19T14:15:42.068Z,77.84
2022-12-19T14:18:43.398Z,77.55
2022-12-19T14:22:08.919Z,78.08
2022-12-19T14:24:25.706Z,77.64
2022-12-19T14:28:26.077Z,77.76
2022-12-19T14:30:27.558Z,77.66
2022-12-19T14:33:46.387Z,78.00
2022-12-19T14:36:08.960Z,77.71
2022-12-19T14:39:24.342Z,77.85
2022-12-19T14:41:47.593Z,77.61
2022-12-19T14:51:51.541Z,77.72
2022-12-19T14:54:07.659Z,77.89
2022-12-19T14:54:13.170Z,77.75
2022-12-19T14:54:32.220Z,77.85
2022-12-19T14:56:53.846Z,77.95
2022-12-19T14:59:56.546Z,77.91
2022-12-19T15:02:34.190Z,77.67
2022-12-19T15:05:12.307Z,77.88
2022-12-19T15:07:45.290Z,77.64
2022-12-19T15:11:05.088Z,77.88
2022-12-19T15:14:49.426Z,77.66
2022-12-19T15:16:29.595Z,78.18
2022-12-19T15:19:00.833Z,78.00
2022-12-19T15:21:31.436Z,77.70
2022-12-19T15:24:00.538Z,77.79
2022-12-19T15:26:35.877Z,77.78
2022-12-19T15:29:15.438Z,77.41
2022-12-19T15:31:48.834Z,77.63
2022-12-19T15:37:16.131Z,77.67
2022-12-19T15:39:46.169Z,77.63
2022-12-19T15:42:25.982Z,78.09
2022-12-19T15:45:00.805Z,77.74
2022-12-19T15:47:33.807Z,77.71
2022-12-19T15:50:12.340Z,77.81
2022-12-19T15:52:41.202Z,77.66
2022-12-19T15:55:15.236Z,77.53
2022-12-19T15:57:49.903Z,77.96
2022-12-19T16:00:26.951Z,77.63
2022-12-19T16:03:22.443Z,77.71
2022-12-19T16:05:46.496Z,77.68
2022-12-19T16:08:19.027Z,77.65
2022-12-19T16:10:59.396Z,77.60
2022-12-19T16:13:34.768Z,77.67
2022-12-19T16:16:11.081Z,77.72
2022-12-19T16:18:44.987Z,77.61
2022-12-19T16:21:33.286Z,77.44
2022-12-19T16:24:03.115Z,77.61
2022-12-19T16:26:36.930Z,77.67
2022-12-19T16:29:07.209Z,77.97
2022-12-19T16:31:36.197Z,77.18
2022-12-19T16:34:16.801Z,77.74
2022-12-19T16:36:45.795Z,77.87
2022-12-19T16:39:15.407Z,77.47
2022-12-19T16:41:46.031Z,77.76
2022-12-19T16:44:23.849Z,77.80
2022-12-19T16:46:53.301Z,77.31
2022-12-19T16:49:23.611Z,77.57
2022-12-19T16:51:52.845Z,77.46
2022-12-19T16:54:21.659Z,77.42
2022-12-19T16:56:53.276Z,77.70
2022-12-19T16:59:28.707Z,77.20
2022-12-19T17:01:59.784Z,77.35
2022-12-19T17:04:30.651Z,77.38
2022-12-19T17:07:00.830Z,77.25
2022-12-19T17:09:30.055Z,77.48
2022-12-19T17:12:01.497Z,77.11
2022-12-19T17:14:35.249Z,77.27
2022-12-19T17:17:04.097Z,77.62
2022-12-19T17:19:37.889Z,77.35
2022-12-19T17:22:17.420Z,76.95
2022-12-19T17:24:47.482Z,77.20
2022-12-19T17:27:18.017Z,77.29
2022-12-19T17:29:47.772Z,77.26
2022-12-19T17:32:23.463Z,77.35
2022-12-19T17:34:53.433Z,76.90
2022-12-19T17:37:22.491Z,77.54
2022-12-19T17:39:51.228Z,77.46
2022-12-19T17:42:23.877Z,77.28
2022-12-19T17:44:53.003Z,77.35
2022-12-19T17:47:22.107Z,77.40
2022-12-19T17:49:51.531Z,77.28
2022-12-19T17:52:21.262Z,77.51
2022-12-19T17:54:50.075Z,77.74
2022-12-19T17:57:20.042Z,77.48
2022-12-19T17:59:48.813Z,77.57
2022-12-19T18:02:23.821Z,77.48
2022-12-19T18:04:53.744Z,77.24
2022-12-19T18:07:22.489Z,77.78
2022-12-19T18:09:51.315Z,77.36
2022-12-19T18:12:20.266Z,77.75
2022-12-19T18:14:48.984Z,77.29
2022-12-19T18:17:26.187Z,77.72
2022-12-19T18:19:55.363Z,77.56
2022-12-19T18:22:24.171Z,77.64
2022-12-19T18:24:53.022Z,77.71
2022-12-19T18:27:21.850Z,77.50
2022-12-19T18:29:50.875Z,77.69
2022-12-19T18:32:21.231Z,77.52
2022-12-19T18:34:50.174Z,77.71
2022-12-19T18:37:18.991Z,77.82
2022-12-19T18:39:47.811Z,77.62
2022-12-19T18:42:23.154Z,77.76
2022-12-19T18:44:52.286Z,77.45
2022-12-19T18:47:24.109Z,77.92
2022-12-19T18:49:53.401Z,77.93
2022-12-19T18:52:22.183Z,77.64
2022-12-19T18:54:50.941Z,77.56
2022-12-19T18:57:21.140Z,77.63
2022-12-19T18:59:50.906Z,77.83
2022-12-19T19:02:30.049Z,77.77
2022-12-19T19:04:59.961Z,77.43
2022-12-19T19:07:28.930Z,77.67
2022-12-19T19:09:57.790Z,77.91
2022-12-19T19:12:43.042Z,77.74
2022-12-19T19:15:12.267Z,77.69
2022-12-19T19:17:43.214Z,78.02
2022-12-19T19:20:12.593Z,78.19
2022-12-19T19:22:42.189Z,77.89
2022-12-19T19:25:11.571Z,77.86
2022-12-19T19:27:42.293Z,77.86
2022-12-19T19:30:12.965Z,78.12
2022-12-19T19:32:53.028Z,78.15
2022-12-19T19:35:23.070Z,77.80
2022-12-19T19:37:56.116Z,78.11
2022-12-19T19:40:24.956Z,77.84
2022-12-19T19:42:53.829Z,77.96
2022-12-19T19:45:24.002Z,77.88
2022-12-19T19:47:52.752Z,78.20
2022-12-19T19:50:21.645Z,77.96
2022-12-19T19:52:50.479Z,77.86
2022-12-19T19:55:19.426Z,77.95
2022-12-19T19:57:48.263Z,78.18
2022-12-19T20:00:18.965Z,77.81
2022-12-19T20:02:48.856Z,78.06
2022-12-19T20:05:18.400Z,77.81
2022-12-19T20:07:47.169Z,77.77
2022-12-19T20:10:16.165Z,77.67
2022-12-19T20:12:45.320Z,77.44
2022-12-19T20:15:14.091Z,77.65
2022-12-19T20:17:42.975Z,77.71
2022-12-19T20:20:12.188Z,77.66
2022-12-19T20:22:41.030Z,78.10
2022-12-19T20:25:09.937Z,77.78
2022-12-19T20:27:38.796Z,77.70
2022-12-19T20:30:08.536Z,77.62
2022-12-19T20:32:37.291Z,77.50
2022-12-19T20:35:12.392Z,77.30
2022-12-19T20:37:43.879Z,78.06
2022-12-19T20:40:13.545Z,78.25
2022-12-19T20:42:42.420Z,77.77
2022-12-19T20:45:11.523Z,77.81
2022-12-19T20:47:40.345Z,78.08
2022-12-19T20:50:09.395Z,77.89
2022-12-19T20:52:38.405Z,77.51
2022-12-19T20:55:08.198Z,77.64
2022-12-19T20:57:37.533Z,77.66
2022-12-19T21:00:08.843Z,77.68
2022-12-19T21:03:16.853Z,77.59
2022-12-19T21:05:26.666Z,77.90
2022-12-19T21:07:55.552Z,77.38
2022-12-19T21:10:24.515Z,77.75
2022-12-19T21:12:53.395Z,77.47
2022-12-19T21:15:22.189Z,77.44
2022-12-19T21:17:51.013Z,77.80
2022-12-19T21:20:19.876Z,77.78
2022-12-19T21:22:48.640Z,77.84
2022-12-19T21:25:17.601Z,77.59
2022-12-19T21:27:47.326Z,77.75
2022-12-19T21:30:16.120Z,77.81
2022-12-19T21:32:45.355Z,77.63
2022-12-19T21:35:14.274Z,77.59
2022-12-19T21:37:44.771Z,77.66
2022-12-19T21:40:13.858Z,77.71
2022-12-19T21:42:42.715Z,77.53
2022-12-19T21:45:12.400Z,77.42
2022-12-19T21:47:42.695Z,77.75
2022-12-19T21:50:14.163Z,77.43
2022-12-19T21:52:43.206Z,77.72
2022-12-19T21:55:12.131Z,77.73
2022-12-19T21:57:42.176Z,77.75
2022-12-19T22:00:13.497Z,77.59
2022-12-19T22:02:55.632Z,77.52
2022-12-19T22:05:31.327Z,77.61
2022-12-19T22:08:00.992Z,77.67
2022-12-19T22:10:29.789Z,77.59
2022-12-19T22:12:58.593Z,77.56
2022-12-19T22:15:27.379Z,77.43
2022-12-19T22:17:56.212Z,77.51
2022-12-19T22:20:25.028Z,77.76
2022-12-19T22:22:53.888Z,77.32
2022-12-19T22:25:22.654Z,77.68
2022-12-19T22:27:51.727Z,77.38
2022-12-19T22:30:20.463Z,77.71
2022-12-19T22:32:49.389Z,77.30
2022-12-19T22:35:18.412Z,77.37
2022-12-19T22:37:47.197Z,77.72
2022-12-19T22:40:16.298Z,77.66
2022-12-19T22:42:45.102Z,77.56
2022-12-19T22:45:14.057Z,77.32
2022-12-19T22:47:43.218Z,77.74
2022-12-19T22:50:12.113Z,77.38
2022-12-19T22:52:41.073Z,77.67
2022-12-19T22:55:09.972Z,77.61
2022-12-19T22:57:38.820Z,77.33
2022-12-19T23:00:11.552Z,77.40
2022-12-19T23:02:42.165Z,77.42
2022-12-19T23:05:11.162Z,77.64
2022-12-19T23:07:39.916Z,77.54
2022-12-19T23:10:09.257Z,77.52
2022-12-19T23:12:38.041Z,77.59
2022-12-19T23:15:07.249Z,77.35
2022-12-19T23:17:36.097Z,77.79
2022-12-19T23:20:05.680Z,77.54
2022-12-19T23:22:34.494Z,77.48
2022-12-19T23:25:03.555Z,77.25
2022-12-19T23:27:32.404Z,77.39
2022-12-19T23:30:01.205Z,77.46
2022-12-19T23:32:30.232Z,77.42
2022-12-19T23:34:59.067Z,77.54
2022-12-19T23:37:27.983Z,77.85
2022-12-19T23:39:57.053Z,77.61
2022-12-19T23:42:25.916Z,77.42
2022-12-19T23:44:54.724Z,77.75
2022-12-19T23:47:23.512Z,77.37
2022-12-19T23:49:52.323Z,77.42
2022-12-19T23:52:21.170Z,77.80
2022-12-19T23:54:50.148Z,77.56
2022-12-19T23:57:18.942Z,77.62
2022-12-19T23:59:47.722Z,77.53
